Terminal Aerodrome Forecast
Issued by NWS Twin Cities, MN

Home | Current Version | Previous Version | Graphics & Text | Print | Product List | Glossary On
Versions: 1 2 3 4 5 6 7 8 9 10 11 12 13 14 15 16 17 18 19 20 21 22 23 24 25 26 27 28
000
FTUS43 KMPX 262300
TAFMSP
TAF
KMSP 262331Z 2700/2806 27010KT P6SM VCSH SCT050 BKN090
     FM270200 28008KT P6SM FEW050 SCT090
     FM271200 29013G20KT P6SM SCT020 OVC035
     FM271800 32017G25KT P6SM -SHRA SCT030 OVC045
     FM280000 34013KT P6SM VCSH SCT035 BKN050=

USA.gov is the U.S. government's official web portal to all federal, state and local government web resources and services.